Terminal Aerodrome Forecast
Issued by NWS

Home | Current Version | Previous Version | Text Only | Print | Product List | Glossary On
Versions: 1 2 3 4 5 6 7 8 9 10 11 12 13 14 15 16 17 18 19 20 21 22 23 24 25 26 27 28 29 30
671
FTUS43 KDMX 170532
TAFMCW
TAF
KMCW 170532Z 1706/1806 36009KT 3SM -FZRA BR OVC004
     FM170900 34010KT 4SM BR OVC005
     FM171900 30011KT 5SM HZ BKN015
     FM180000 27007KT 6SM HZ SKC=

USA.gov is the U.S. government's official web portal to all federal, state and local government web resources and services.